createdAt,value
2023-04-29T00:00:47.352Z,53.56
2023-04-29T00:02:49.132Z,54.11
2023-04-29T00:04:51.946Z,54.40
2023-04-29T00:06:54.307Z,54.65
2023-04-29T00:08:55.927Z,53.81
2023-04-29T00:10:57.517Z,54.35
2023-04-29T00:12:59.209Z,53.17
2023-04-29T00:15:02.992Z,53.52
2023-04-29T00:17:05.008Z,53.01
2023-04-29T00:19:07.134Z,53.70
2023-04-29T00:21:08.783Z,53.42
2023-04-29T00:23:11.212Z,53.57
2023-04-29T00:25:13.114Z,53.02
2023-04-29T00:27:14.828Z,52.85
2023-04-29T00:29:16.400Z,53.85
2023-04-29T00:31:18.123Z,54.67
2023-04-29T00:33:20.099Z,55.41
2023-04-29T00:35:21.988Z,54.95
2023-04-29T00:37:23.616Z,54.67
2023-04-29T00:39:25.776Z,54.46
2023-04-29T00:41:27.416Z,52.62
2023-04-29T00:43:29.043Z,53.41
2023-04-29T00:45:30.668Z,53.34
2023-04-29T00:47:32.293Z,53.77
2023-04-29T00:49:33.961Z,52.58
2023-04-29T00:51:37.475Z,53.47
2023-04-29T00:53:39.506Z,52.92
2023-04-29T00:55:42.101Z,53.31
2023-04-29T00:57:43.797Z,52.36
2023-04-29T00:59:46.095Z,53.03
2023-04-29T01:01:47.804Z,52.32
2023-04-29T01:03:50.935Z,52.22
2023-04-29T01:06:02.896Z,52.52
2023-04-29T01:08:22.689Z,52.82
2023-04-29T01:10:29.507Z,52.24
2023-04-29T01:12:41.655Z,52.51
2023-04-29T01:14:47.196Z,52.29
2023-04-29T01:16:52.808Z,52.27
2023-04-29T01:18:56.379Z,53.03
2023-04-29T01:20:59.102Z,53.38
2023-04-29T01:23:00.695Z,53.36
2023-04-29T01:25:02.278Z,53.13
2023-04-29T01:27:29.776Z,54.57
2023-04-29T01:29:53.955Z,55.46
2023-04-29T01:32:04.943Z,55.37
2023-04-29T01:34:23.570Z,54.98
2023-04-29T01:36:41.028Z,54.84
2023-04-29T01:38:51.202Z,55.64
2023-04-29T01:41:11.653Z,55.58
2023-04-29T01:43:14.675Z,55.43
2023-04-29T01:45:21.435Z,55.42
2023-04-29T01:47:23.504Z,54.83
2023-04-29T01:49:26.118Z,54.05
2023-04-29T01:51:28.374Z,53.95
2023-04-29T01:53:29.983Z,53.35
2023-04-29T01:55:31.582Z,53.37
2023-04-29T01:57:33.757Z,53.65
2023-04-29T01:59:36.612Z,54.67
2023-04-29T02:01:38.264Z,56.40
2023-04-29T02:03:40.229Z,57.80
2023-04-29T02:05:43.109Z,58.15
2023-04-29T02:07:44.815Z,58.42
2023-04-29T02:09:46.433Z,58.19
2023-04-29T02:11:48.053Z,58.11
2023-04-29T02:13:49.671Z,58.94
2023-04-29T02:15:51.337Z,59.32
2023-04-29T02:17:53.025Z,59.01
2023-04-29T02:19:57.182Z,57.85
2023-04-29T02:21:58.803Z,56.90
2023-04-29T02:24:00.403Z,56.69
2023-04-29T02:26:02.112Z,56.72
2023-04-29T02:28:03.760Z,55.43
2023-04-29T02:30:06.123Z,55.32
2023-04-29T02:32:07.797Z,55.32
2023-04-29T02:34:09.652Z,54.89
2023-04-29T02:36:11.218Z,55.26
2023-04-29T02:38:13.072Z,54.94
2023-04-29T02:40:14.665Z,55.25
2023-04-29T02:42:16.218Z,54.78
2023-04-29T02:44:17.924Z,55.54
2023-04-29T02:46:19.681Z,54.76
2023-04-29T02:48:21.415Z,54.37
2023-04-29T02:50:23.306Z,54.68
2023-04-29T02:52:24.899Z,54.76
2023-04-29T02:54:26.492Z,55.23
2023-04-29T02:56:28.204Z,55.24
2023-04-29T02:58:29.819Z,55.51
2023-04-29T03:00:31.446Z,57.02
2023-04-29T03:02:33.160Z,58.14
2023-04-29T03:04:35.050Z,58.70
2023-04-29T03:06:36.642Z,58.86
2023-04-29T03:08:38.237Z,58.10
2023-04-29T03:10:41.479Z,57.65
2023-04-29T03:12:43.626Z,57.13
2023-04-29T03:14:45.244Z,56.21
2023-04-29T03:16:46.884Z,56.18
2023-04-29T03:18:48.897Z,55.35
2023-04-29T03:20:50.439Z,55.79
2023-04-29T03:22:52.127Z,55.88
2023-04-29T03:24:53.795Z,55.66
2023-04-29T03:26:55.680Z,56.04
2023-04-29T03:28:58.593Z,56.94
2023-04-29T03:31:00.553Z,57.87
2023-04-29T03:33:02.351Z,57.95
2023-04-29T03:35:04.343Z,58.07
2023-04-29T03:37:06.255Z,57.42
2023-04-29T03:39:07.882Z,57.11
2023-04-29T03:41:09.478Z,57.14
2023-04-29T03:43:11.229Z,56.29
2023-04-29T03:45:14.458Z,57.26
2023-04-29T03:47:16.164Z,57.24
2023-04-29T03:49:17.964Z,57.74
2023-04-29T03:51:19.577Z,57.51
2023-04-29T03:53:21.954Z,57.51
2023-04-29T03:55:23.755Z,57.40
2023-04-29T03:57:25.325Z,57.41
2023-04-29T03:59:26.918Z,57.14
2023-04-29T04:01:28.501Z,56.76
2023-04-29T04:03:30.272Z,56.43
2023-04-29T04:05:31.910Z,56.63
2023-04-29T04:07:33.543Z,56.00
2023-04-29T04:09:35.133Z,56.36
2023-04-29T04:11:36.716Z,56.74
2023-04-29T04:13:38.671Z,56.70
2023-04-29T04:15:40.742Z,56.86
2023-04-29T04:17:42.414Z,56.31
2023-04-29T04:19:44.010Z,56.27
2023-04-29T04:21:45.643Z,55.62
2023-04-29T04:23:47.210Z,55.11
2023-04-29T04:25:49.344Z,54.79
2023-04-29T04:27:50.978Z,54.97
2023-04-29T04:29:55.580Z,54.15
2023-04-29T04:31:57.373Z,54.21
2023-04-29T04:34:00.006Z,54.27
2023-04-29T04:36:01.865Z,54.35
2023-04-29T04:38:03.443Z,54.84
2023-04-29T04:40:05.537Z,56.59
2023-04-29T04:42:07.325Z,57.61
2023-04-29T04:44:09.181Z,57.56
2023-04-29T04:46:15.170Z,57.84
2023-04-29T04:48:16.815Z,57.69
2023-04-29T04:50:18.379Z,57.69
2023-04-29T04:52:21.509Z,58.24
2023-04-29T04:54:23.112Z,58.40
2023-04-29T04:56:24.690Z,58.41
2023-04-29T04:58:26.876Z,58.43
2023-04-29T05:00:28.471Z,58.10
2023-04-29T05:02:30.153Z,57.33
2023-04-29T05:04:32.122Z,56.66
2023-04-29T05:06:33.913Z,55.98
2023-04-29T05:08:35.517Z,56.28
2023-04-29T05:10:37.474Z,55.56
2023-04-29T05:12:39.053Z,55.49
2023-04-29T05:14:40.855Z,54.50
2023-04-29T05:16:43.769Z,54.91
2023-04-29T05:18:46.632Z,55.79
2023-04-29T05:20:48.238Z,55.96
2023-04-29T05:22:49.827Z,56.01
2023-04-29T05:24:52.924Z,54.92
2023-04-29T05:26:54.693Z,54.68
2023-04-29T05:28:56.260Z,54.13
2023-04-29T05:30:57.839Z,53.09
2023-04-29T05:32:59.593Z,53.16
2023-04-29T05:35:01.697Z,52.95
2023-04-29T05:37:03.340Z,53.07
2023-04-29T05:39:04.964Z,54.24
2023-04-29T05:41:06.594Z,54.02
2023-04-29T05:43:08.180Z,54.07
2023-04-29T05:45:10.504Z,54.52
2023-04-29T05:47:12.088Z,53.16
2023-04-29T05:49:13.776Z,52.97
2023-04-29T05:51:15.950Z,52.28
2023-04-29T05:53:17.550Z,52.25
2023-04-29T05:55:19.381Z,53.78
2023-04-29T05:57:21.246Z,54.85
2023-04-29T05:59:22.971Z,57.33
2023-04-29T06:01:24.633Z,57.26
2023-04-29T06:03:26.516Z,56.83
2023-04-29T06:05:28.779Z,55.26
2023-04-29T06:07:30.744Z,54.42
2023-04-29T06:09:33.369Z,54.93
2023-04-29T06:11:34.987Z,53.81
2023-04-29T06:13:36.566Z,53.97
2023-04-29T06:15:38.409Z,53.60
2023-04-29T06:17:40.480Z,53.68
2023-04-29T06:19:42.104Z,53.03
2023-04-29T06:21:43.679Z,52.59
2023-04-29T06:23:45.381Z,53.18
2023-04-29T06:25:46.964Z,54.08
2023-04-29T06:27:49.393Z,54.00
2023-04-29T06:29:51.328Z,53.79
2023-04-29T06:31:54.357Z,52.97
2023-04-29T06:33:56.633Z,52.79
2023-04-29T06:35:58.230Z,52.98
2023-04-29T06:37:59.776Z,52.56
2023-04-29T06:40:01.344Z,52.04
2023-04-29T06:42:03.762Z,51.84
2023-04-29T06:44:05.434Z,50.84
2023-04-29T06:46:07.315Z,50.77
2023-04-29T06:48:09.086Z,49.94
2023-04-29T06:50:10.945Z,49.53
2023-04-29T06:52:12.764Z,48.71
2023-04-29T06:54:14.375Z,48.21
2023-04-29T06:56:17.179Z,48.07
2023-04-29T06:58:19.601Z,48.24
2023-04-29T07:00:22.882Z,47.75
2023-04-29T07:02:24.532Z,47.34
2023-04-29T07:04:26.211Z,47.79
2023-04-29T07:06:27.886Z,47.47
2023-04-29T07:08:29.523Z,47.56
2023-04-29T07:10:31.184Z,47.41
2023-04-29T07:12:32.805Z,47.02
2023-04-29T07:14:34.374Z,46.65
2023-04-29T07:16:36.237Z,46.50
2023-04-29T07:18:37.863Z,46.20
2023-04-29T07:20:39.473Z,46.43
2023-04-29T07:22:41.061Z,46.48
2023-04-29T07:24:42.723Z,46.43
2023-04-29T07:26:47.701Z,45.56
2023-04-29T07:28:52.211Z,45.73
2023-04-29T07:30:53.839Z,44.75
2023-04-29T07:32:55.440Z,45.69
2023-04-29T07:34:57.564Z,45.65
2023-04-29T07:36:59.153Z,44.89
2023-04-29T07:39:00.801Z,45.01
2023-04-29T07:41:03.246Z,44.83
2023-04-29T07:43:06.892Z,44.25
2023-04-29T07:45:08.873Z,43.72
2023-04-29T07:47:10.526Z,43.25
2023-04-29T07:49:12.650Z,42.37
2023-04-29T07:51:14.908Z,42.40
2023-04-29T07:53:17.396Z,41.81
2023-04-29T07:55:19.111Z,41.52
2023-04-29T07:57:20.742Z,42.13
2023-04-29T07:59:22.269Z,41.11
2023-04-29T08:01:23.871Z,40.91
2023-04-29T08:03:27.334Z,40.54
2023-04-29T08:05:30.828Z,40.69
2023-04-29T08:07:32.700Z,41.20
2023-04-29T08:09:34.414Z,41.80
2023-04-29T08:11:36.031Z,42.58
2023-04-29T08:13:37.661Z,42.71
2023-04-29T08:15:39.273Z,41.95
2023-04-29T08:17:41.117Z,41.61
2023-04-29T08:19:42.780Z,40.20
2023-04-29T08:21:44.716Z,39.84
2023-04-29T08:23:46.395Z,40.00
2023-04-29T08:25:48.054Z,39.27
2023-04-29T08:27:49.655Z,39.18
2023-04-29T08:29:51.717Z,39.00
2023-04-29T08:31:53.496Z,39.27
2023-04-29T08:33:55.235Z,38.60
2023-04-29T08:36:03.873Z,38.64
2023-04-29T08:38:06.713Z,38.46
2023-04-29T08:40:09.110Z,38.56
2023-04-29T08:42:10.913Z,38.85
2023-04-29T08:44:12.791Z,38.07
2023-04-29T08:46:15.097Z,37.85
2023-04-29T08:48:17.599Z,37.41
2023-04-29T08:50:19.618Z,37.11
2023-04-29T08:52:21.183Z,36.61
2023-04-29T08:54:22.749Z,35.45
2023-04-29T08:56:25.679Z,35.78
2023-04-29T08:58:28.957Z,37.14
2023-04-29T09:00:32.449Z,37.55
2023-04-29T09:02:35.386Z,37.68
2023-04-29T09:04:51.282Z,37.74
2023-04-29T09:06:53.881Z,37.83
2023-04-29T09:08:55.649Z,37.54
2023-04-29T09:10:57.698Z,37.38
2023-04-29T09:12:59.248Z,36.68
2023-04-29T09:15:38.183Z,36.26
2023-04-29T09:20:56.029Z,35.77
2023-04-29T09:23:03.667Z,35.22
2023-04-29T09:25:15.015Z,34.99
2023-04-29T09:27:31.522Z,35.23
2023-04-29T09:29:34.620Z,36.22
2023-04-29T09:31:37.941Z,36.78
2023-04-29T09:33:57.154Z,37.30
2023-04-29T09:35:58.859Z,37.63
2023-04-29T09:38:16.917Z,37.21
2023-04-29T09:40:31.591Z,37.25
2023-04-29T09:42:43.320Z,37.59
2023-04-29T09:44:45.397Z,37.46
2023-04-29T09:47:06.985Z,36.55
2023-04-29T09:49:32.809Z,36.26
2023-04-29T09:51:45.172Z,36.69
2023-04-29T09:53:46.733Z,36.33
2023-04-29T09:55:54.178Z,36.70
2023-04-29T09:57:56.309Z,35.80
2023-04-29T09:59:57.921Z,34.92
2023-04-29T10:02:00.108Z,34.67
2023-04-29T10:04:20.916Z,34.02
2023-04-29T10:06:23.621Z,33.86
2023-04-29T10:08:25.555Z,33.23
2023-04-29T10:10:30.317Z,32.49
2023-04-29T10:12:35.206Z,32.77
2023-04-29T10:14:44.893Z,32.19
2023-04-29T10:16:46.791Z,31.80
2023-04-29T10:18:56.496Z,32.16
2023-04-29T10:21:00.307Z,33.20
2023-04-29T10:23:01.839Z,34.66
2023-04-29T10:25:06.941Z,33.99
2023-04-29T10:27:12.376Z,34.33
2023-04-29T10:29:15.503Z,33.62
2023-04-29T10:31:18.065Z,33.87
2023-04-29T10:33:19.984Z,34.22
2023-04-29T10:35:25.806Z,34.60
2023-04-29T10:37:27.801Z,35.24
2023-04-29T10:39:52.449Z,35.28
2023-04-29T10:41:54.491Z,35.38
2023-04-29T10:43:56.334Z,35.30
2023-04-29T10:46:17.468Z,35.29
2023-04-29T10:48:22.035Z,35.08
2023-04-29T10:50:23.669Z,35.05
2023-04-29T10:52:25.364Z,34.81
2023-04-29T10:54:27.970Z,34.43
2023-04-29T10:56:37.895Z,33.74
2023-04-29T10:58:44.077Z,32.84
2023-04-29T11:00:45.727Z,32.18
2023-04-29T11:03:06.892Z,32.48
2023-04-29T11:05:10.244Z,32.95
2023-04-29T11:07:27.168Z,33.40
2023-04-29T11:09:31.084Z,33.77
2023-04-29T11:11:45.606Z,33.83
2023-04-29T11:13:47.996Z,33.49
2023-04-29T11:15:51.688Z,32.75
2023-04-29T11:17:53.243Z,32.31
2023-04-29T11:19:56.216Z,32.25
2023-04-29T11:22:11.985Z,31.47
2023-04-29T11:24:16.188Z,29.42
2023-04-29T11:26:21.579Z,29.46
2023-04-29T11:28:24.519Z,30.57
2023-04-29T11:30:26.308Z,30.74
2023-04-29T11:32:29.783Z,30.90
2023-04-29T11:34:31.415Z,30.35
2023-04-29T11:36:33.619Z,30.42
2023-04-29T11:38:36.601Z,31.02
2023-04-29T11:40:42.434Z,31.01
2023-04-29T11:42:45.752Z,31.25
2023-04-29T11:44:47.489Z,31.21
2023-04-29T11:46:49.795Z,31.12
2023-04-29T11:48:51.467Z,31.40
2023-04-29T11:50:57.899Z,31.89
2023-04-29T11:52:59.552Z,31.51
2023-04-29T11:55:01.173Z,31.45
2023-04-29T11:57:04.887Z,31.32
2023-04-29T11:59:08.281Z,31.64
2023-04-29T12:01:10.071Z,31.76
2023-04-29T12:03:16.060Z,31.59
2023-04-29T12:05:19.505Z,31.58
2023-04-29T12:07:21.858Z,31.47
2023-04-29T12:09:23.619Z,31.37
2023-04-29T12:11:26.853Z,32.04
2023-04-29T12:13:30.188Z,33.09
2023-04-29T12:15:32.680Z,33.40
2023-04-29T12:17:34.332Z,33.54
2023-04-29T12:19:39.263Z,33.89
2023-04-29T12:21:49.130Z,33.96
2023-04-29T12:23:51.851Z,34.82
2023-04-29T12:25:58.301Z,35.27
2023-04-29T12:28:00.287Z,34.67
2023-04-29T12:30:01.869Z,34.74
2023-04-29T12:32:03.802Z,34.79
2023-04-29T12:34:08.310Z,34.81
2023-04-29T12:36:18.588Z,34.34
2023-04-29T12:40:23.841Z,33.89
2023-04-29T12:42:33.018Z,34.08
2023-04-29T12:44:37.757Z,33.78
2023-04-29T12:46:42.710Z,33.39
2023-04-29T12:48:44.507Z,33.60
2023-04-29T12:50:50.309Z,32.99
2023-04-29T12:52:51.878Z,32.94
2023-04-29T12:54:53.699Z,32.78
2023-04-29T12:56:55.642Z,33.14
2023-04-29T12:58:58.028Z,33.23
2023-04-29T13:00:59.684Z,33.26
2023-04-29T13:03:01.808Z,34.01
2023-04-29T13:05:04.873Z,34.18
2023-04-29T13:07:07.253Z,34.52
2023-04-29T13:09:17.939Z,33.97
2023-04-29T13:11:20.780Z,34.41
2023-04-29T13:13:22.457Z,34.20
2023-04-29T13:15:24.122Z,34.34
2023-04-29T13:17:25.813Z,34.19
2023-04-29T13:19:43.348Z,34.35
2023-04-29T13:21:49.145Z,34.15
2023-04-29T13:23:52.057Z,34.50
2023-04-29T13:25:53.660Z,34.73
2023-04-29T13:27:55.436Z,34.40
2023-04-29T13:29:57.055Z,33.96
2023-04-29T13:31:58.828Z,33.72
2023-04-29T13:34:00.614Z,33.87
2023-04-29T13:36:02.435Z,35.00
2023-04-29T13:38:04.442Z,35.60
2023-04-29T13:40:07.586Z,35.89
2023-04-29T13:42:10.429Z,35.87
2023-04-29T13:44:21.578Z,36.39
2023-04-29T13:46:32.129Z,36.09
2023-04-29T13:49:11.289Z,35.97
2023-04-29T13:55:58.759Z,35.30
2023-04-29T13:58:13.359Z,35.34
2023-04-29T13:59:52.647Z,34.91
2023-04-29T14:02:23.198Z,34.40
2023-04-29T14:04:16.212Z,34.93
2023-04-29T14:06:17.840Z,34.44
2023-04-29T14:08:19.447Z,34.28
2023-04-29T14:10:21.165Z,33.71
2023-04-29T14:12:22.829Z,33.48
2023-04-29T14:14:24.437Z,33.13
2023-04-29T14:16:26.485Z,33.67
2023-04-29T14:18:30.144Z,33.91
2023-04-29T14:20:31.686Z,33.96
2023-04-29T14:22:33.300Z,34.25
2023-04-29T14:24:34.926Z,34.32
2023-04-29T14:26:37.129Z,34.02
2023-04-29T14:28:38.737Z,33.87
2023-04-29T14:30:41.569Z,33.99
2023-04-29T14:32:43.315Z,34.25
2023-04-29T14:34:44.981Z,34.57
2023-04-29T14:36:46.881Z,34.55
2023-04-29T14:38:48.760Z,34.58
2023-04-29T14:40:50.621Z,35.01
2023-04-29T14:42:52.190Z,35.41
2023-04-29T14:44:54.558Z,34.96
2023-04-29T14:46:56.950Z,35.04
2023-04-29T14:48:58.680Z,35.14
2023-04-29T14:51:00.431Z,35.68
2023-04-29T14:53:02.176Z,35.15
2023-04-29T14:55:03.962Z,35.41
2023-04-29T14:57:05.540Z,35.62
2023-04-29T14:59:08.831Z,35.66
2023-04-29T15:01:10.526Z,35.27
2023-04-29T15:03:20.171Z,35.06
2023-04-29T15:05:24.133Z,34.65
2023-04-29T15:07:25.964Z,34.92
2023-04-29T15:09:27.654Z,35.12
2023-04-29T15:11:29.247Z,35.15
2023-04-29T15:13:32.109Z,35.19
2023-04-29T15:15:33.906Z,35.20
2023-04-29T15:17:35.557Z,35.13
2023-04-29T15:19:37.388Z,35.13
2023-04-29T15:21:38.986Z,35.33
2023-04-29T15:23:40.650Z,35.27
2023-04-29T15:25:42.312Z,35.62
2023-04-29T15:27:43.957Z,35.54
2023-04-29T15:29:45.555Z,35.74
2023-04-29T15:31:47.193Z,36.09
2023-04-29T15:33:48.912Z,36.05
2023-04-29T15:35:51.364Z,36.10
2023-04-29T15:37:53.029Z,36.31
2023-04-29T15:39:55.957Z,36.11
2023-04-29T15:41:58.941Z,36.41
2023-04-29T15:44:00.729Z,36.62
2023-04-29T15:46:02.809Z,36.65
2023-04-29T15:48:04.925Z,36.55
2023-04-29T15:50:07.600Z,36.67
2023-04-29T15:52:09.737Z,36.81
2023-04-29T15:54:11.354Z,36.83
2023-04-29T15:56:13.363Z,37.00
2023-04-29T15:58:14.950Z,37.05
2023-04-29T16:00:16.515Z,36.99
2023-04-29T16:02:20.392Z,36.88
2023-04-29T16:04:22.185Z,37.08
2023-04-29T16:06:23.895Z,37.21
2023-04-29T16:08:25.653Z,37.24
2023-04-29T16:10:27.238Z,37.12
2023-04-29T16:12:28.966Z,37.13
2023-04-29T16:14:30.657Z,37.20
2023-04-29T16:16:32.391Z,37.55
2023-04-29T16:18:33.954Z,37.54
2023-04-29T16:20:35.560Z,37.48
2023-04-29T16:22:37.169Z,37.64
2023-04-29T16:24:38.787Z,37.74
2023-04-29T16:26:40.856Z,37.68
2023-04-29T16:28:42.475Z,37.74
2023-04-29T16:30:44.300Z,37.97
2023-04-29T16:32:45.947Z,38.19
2023-04-29T16:34:47.623Z,38.29
2023-04-29T16:36:49.605Z,38.66
2023-04-29T16:38:51.627Z,39.06
2023-04-29T16:40:53.244Z,39.99
2023-04-29T16:42:56.904Z,40.01
2023-04-29T16:44:58.453Z,39.93
2023-04-29T16:47:00.261Z,40.36
2023-04-29T16:49:01.877Z,40.59
2023-04-29T16:51:04.275Z,41.13
2023-04-29T16:53:05.852Z,40.63
2023-04-29T16:55:08.660Z,41.18
2023-04-29T16:57:10.698Z,41.76
2023-04-29T16:59:12.647Z,42.30
2023-04-29T17:01:14.432Z,42.54
2023-04-29T17:03:16.110Z,43.00
2023-04-29T17:05:19.475Z,44.51
2023-04-29T17:07:21.198Z,45.36
2023-04-29T17:09:25.970Z,45.35
2023-04-29T17:11:27.558Z,44.94
2023-04-29T17:13:29.784Z,44.74
2023-04-29T17:15:31.658Z,44.69
2023-04-29T17:17:33.289Z,44.64
2023-04-29T17:19:35.067Z,44.21
2023-04-29T17:21:36.751Z,44.17
2023-04-29T17:23:38.821Z,44.23
2023-04-29T17:25:40.650Z,44.25
2023-04-29T17:27:45.934Z,44.36
2023-04-29T17:29:47.594Z,44.67
2023-04-29T17:31:54.945Z,44.45
2023-04-29T17:34:05.518Z,44.22
2023-04-29T17:36:07.282Z,44.45
2023-04-29T17:38:08.965Z,44.52
2023-04-29T17:40:10.994Z,44.65
2023-04-29T17:42:12.539Z,44.50
2023-04-29T17:44:14.232Z,44.73
2023-04-29T17:46:15.998Z,45.05
2023-04-29T17:48:19.334Z,45.29
2023-04-29T17:50:20.964Z,45.71
2023-04-29T17:52:22.592Z,46.18
2023-04-29T17:54:24.229Z,47.31
2023-04-29T17:56:27.249Z,48.25
2023-04-29T17:58:29.240Z,48.64
2023-04-29T18:00:31.160Z,48.75
2023-04-29T18:02:33.177Z,48.85
2023-04-29T18:04:34.798Z,49.46
2023-04-29T18:06:36.386Z,50.60
2023-04-29T18:08:38.057Z,50.56
2023-04-29T18:10:39.643Z,50.91
2023-04-29T18:12:41.463Z,51.03
2023-04-29T18:14:43.092Z,51.15
2023-04-29T18:16:45.021Z,51.37
2023-04-29T18:18:46.735Z,51.29
2023-04-29T18:20:48.386Z,51.35
2023-04-29T18:22:50.784Z,51.36
2023-04-29T18:24:52.419Z,51.88
2023-04-29T18:26:54.190Z,52.07
2023-04-29T18:28:55.858Z,52.38
2023-04-29T18:30:57.629Z,52.60
2023-04-29T18:33:00.115Z,52.43
2023-04-29T18:35:02.135Z,52.93
2023-04-29T18:37:03.691Z,53.41
2023-04-29T18:39:05.300Z,53.66
2023-04-29T18:41:08.641Z,53.20
2023-04-29T18:43:11.949Z,53.32
2023-04-29T18:45:13.643Z,53.31
2023-04-29T18:47:15.515Z,53.72
2023-04-29T18:49:18.073Z,52.85
2023-04-29T18:51:19.831Z,53.05
2023-04-29T18:53:21.561Z,53.02
2023-04-29T18:55:23.234Z,53.52
2023-04-29T18:57:24.855Z,53.85
2023-04-29T18:59:26.914Z,53.91
2023-04-29T19:01:28.614Z,53.91
2023-04-29T19:03:30.270Z,53.98
2023-04-29T19:05:32.307Z,53.54
2023-04-29T19:07:33.868Z,53.61
2023-04-29T19:09:35.480Z,53.64
2023-04-29T19:11:37.162Z,53.95
2023-04-29T19:13:38.814Z,54.00
2023-04-29T19:15:40.982Z,53.52
2023-04-29T19:17:42.634Z,53.73
2023-04-29T19:19:44.285Z,54.01
2023-04-29T19:21:46.038Z,53.47
2023-04-29T19:23:47.677Z,53.58
2023-04-29T19:25:49.396Z,53.26
2023-04-29T19:27:51.207Z,52.83
2023-04-29T19:29:52.992Z,52.99
2023-04-29T19:31:54.698Z,53.20
2023-04-29T19:33:56.403Z,53.22
2023-04-29T19:35:58.000Z,53.22
2023-04-29T19:37:59.572Z,53.36
2023-04-29T19:40:01.201Z,52.82
2023-04-29T19:42:04.123Z,53.05
2023-04-29T19:44:06.534Z,52.12
2023-04-29T19:46:08.236Z,52.04
2023-04-29T19:48:09.948Z,52.09
2023-04-29T19:50:11.552Z,52.66
2023-04-29T19:52:13.090Z,52.98
2023-04-29T19:54:14.655Z,52.98
2023-04-29T19:56:16.446Z,53.71
2023-04-29T19:58:17.984Z,53.92
2023-04-29T20:00:19.636Z,53.39
2023-04-29T20:02:21.317Z,53.22
2023-04-29T20:04:24.946Z,52.78
2023-04-29T20:06:27.255Z,51.98
2023-04-29T20:08:29.136Z,51.77
2023-04-29T20:10:31.022Z,52.04
2023-04-29T20:12:32.765Z,52.20
2023-04-29T20:14:34.390Z,52.10
2023-04-29T20:16:36.019Z,51.87
2023-04-29T20:18:37.796Z,51.81
2023-04-29T20:20:39.400Z,51.31
2023-04-29T20:22:41.008Z,51.95
2023-04-29T20:24:42.908Z,51.66
2023-04-29T20:26:44.519Z,51.50
2023-04-29T20:28:46.102Z,51.76
2023-04-29T20:30:47.754Z,51.60
2023-04-29T20:32:49.383Z,51.70
2023-04-29T20:34:51.085Z,51.62
2023-04-29T20:36:52.694Z,51.25
2023-04-29T20:38:54.424Z,51.53
2023-04-29T20:40:56.093Z,51.65
2023-04-29T20:42:57.700Z,51.93
2023-04-29T20:44:59.898Z,52.15
2023-04-29T20:47:01.567Z,51.93
2023-04-29T20:49:04.584Z,51.79
2023-04-29T20:51:07.078Z,51.54
2023-04-29T20:53:08.806Z,51.60
2023-04-29T20:55:10.413Z,51.74
2023-04-29T20:57:12.034Z,51.62
2023-04-29T20:59:13.683Z,52.15
2023-04-29T21:01:15.362Z,52.21
2023-04-29T21:03:16.947Z,52.01
2023-04-29T21:05:18.589Z,52.82
2023-04-29T21:07:20.235Z,53.91
2023-04-29T21:09:22.139Z,54.60
2023-04-29T21:11:23.840Z,54.30
2023-04-29T21:13:26.109Z,54.41
2023-04-29T21:15:29.342Z,54.18
2023-04-29T21:17:31.210Z,54.69
2023-04-29T21:19:35.782Z,54.28
2023-04-29T21:21:37.393Z,54.57
2023-04-29T21:23:39.269Z,54.70
2023-04-29T21:25:41.075Z,54.76
2023-04-29T21:27:42.659Z,54.52
2023-04-29T21:29:44.242Z,54.89
2023-04-29T21:31:46.029Z,54.75
2023-04-29T21:33:47.653Z,54.49
2023-04-29T21:35:51.672Z,54.84
2023-04-29T21:37:53.381Z,55.11
2023-04-29T21:39:57.500Z,55.32
2023-04-29T21:42:03.219Z,55.32
2023-04-29T21:44:06.377Z,55.10
2023-04-29T21:46:08.089Z,54.70
2023-04-29T21:48:17.519Z,54.60
2023-04-29T21:50:19.272Z,54.15
2023-04-29T21:52:20.965Z,54.25
2023-04-29T21:54:22.747Z,53.70
2023-04-29T21:56:24.687Z,53.57
2023-04-29T21:58:26.342Z,53.32
2023-04-29T22:00:36.350Z,53.75
2023-04-29T22:02:42.690Z,53.52
2023-04-29T22:04:44.431Z,53.94
2023-04-29T22:06:46.377Z,53.85
2023-04-29T22:08:48.070Z,54.11
2023-04-29T22:10:49.868Z,54.36
2023-04-29T22:12:51.947Z,54.49
2023-04-29T22:14:53.566Z,54.05
2023-04-29T22:16:55.159Z,54.21
2023-04-29T22:18:57.619Z,54.03
2023-04-29T22:20:59.353Z,54.38
2023-04-29T22:23:00.941Z,55.05
2023-04-29T22:25:03.460Z,54.29
2023-04-29T22:27:05.056Z,54.34
2023-04-29T22:29:06.686Z,54.71
2023-04-29T22:31:08.262Z,54.49
2023-04-29T22:33:11.176Z,54.80
2023-04-29T22:35:12.818Z,54.55
2023-04-29T22:37:14.625Z,55.13
2023-04-29T22:39:16.233Z,55.77
2023-04-29T22:41:19.500Z,56.58
2023-04-29T22:43:21.198Z,57.31
2023-04-29T22:45:23.230Z,57.98
2023-04-29T22:47:24.904Z,59.17
2023-04-29T22:49:26.850Z,60.78
2023-04-29T22:51:28.425Z,60.46
2023-04-29T22:53:30.055Z,60.60
2023-04-29T22:55:33.263Z,60.54
2023-04-29T22:57:34.898Z,60.70
2023-04-29T22:59:36.510Z,59.95
2023-04-29T23:01:38.119Z,59.86
2023-04-29T23:03:39.820Z,59.49
2023-04-29T23:05:41.575Z,59.23
2023-04-29T23:07:43.153Z,59.09
2023-04-29T23:09:44.764Z,58.47
2023-04-29T23:11:46.482Z,58.97
2023-04-29T23:13:48.796Z,58.43
2023-04-29T23:15:50.758Z,58.44
2023-04-29T23:17:52.450Z,58.26
2023-04-29T23:19:54.336Z,58.52
2023-04-29T23:21:56.299Z,58.77
2023-04-29T23:23:57.963Z,58.32
2023-04-29T23:25:59.546Z,58.77
2023-04-29T23:28:01.090Z,58.67
2023-04-29T23:30:02.810Z,58.91
2023-04-29T23:32:04.458Z,59.14
2023-04-29T23:34:06.072Z,58.69
2023-04-29T23:36:07.797Z,59.08
2023-04-29T23:38:09.500Z,59.20
2023-04-29T23:40:11.321Z,59.08
2023-04-29T23:42:13.226Z,59.57
2023-04-29T23:44:14.811Z,59.67
2023-04-29T23:46:16.700Z,59.47
2023-04-29T23:48:18.446Z,59.36
2023-04-29T23:50:20.059Z,59.33
2023-04-29T23:52:21.637Z,59.54
2023-04-29T23:54:23.297Z,60.28
2023-04-29T23:56:28.912Z,60.60
2023-04-29T23:58:30.598Z,61.71
